Time;durP1;ratioP1;P1;durP2;ratioP2;P2;SDS_P1;SDS_P2;PMS_P1;PMS_P2;Temp;Humidity;BMP_temperature;BMP_pressure;BME280_temperature;BME280_humidity;BME280_pressure;Samples;Min_cycle;Max_cycle;Signal;HPM_P1;HPM_P2
2023/04/27 00:00:39;;;;;;;14.20;6.30;;;6.10;99.90;;;;;;4877551;29;20111;-78
2023/04/27 00:03:06;;;;;;;14.13;6.43;;;6.10;99.90;;;;;;4878768;29;20052;-77
2023/04/27 00:05:38;;;;;;;14.63;6.50;;;6.10;99.90;;;;;;4878655;29;20033;-77
2023/04/27 00:08:04;;;;;;;13.45;7.82;;;6.00;99.90;;;;;;4879102;29;20043;-78
2023/04/27 00:10:30;;;;;;;12.88;6.35;;;6.00;99.90;;;;;;4879460;29;20029;-77
2023/04/27 00:12:56;;;;;;;13.30;7.07;;;6.00;99.90;;;;;;4877231;29;20052;-76
2023/04/27 00:15:22;;;;;;;11.98;5.80;;;5.90;99.90;;;;;;4878701;29;20025;-77
2023/04/27 00:17:48;;;;;;;12.18;7.05;;;5.90;99.90;;;;;;4878381;29;20037;-77
2023/04/27 00:20:14;;;;;;;13.60;6.53;;;5.80;99.90;;;;;;4877556;29;20050;-73
2023/04/27 00:22:40;;;;;;;10.52;6.22;;;5.80;99.90;;;;;;4879284;29;20037;-77
2023/04/27 00:25:06;;;;;;;13.32;6.80;;;5.80;99.90;;;;;;4879562;29;20061;-77
2023/04/27 00:27:32;;;;;;;16.23;6.30;;;5.80;99.90;;;;;;4878238;29;20481;-77
2023/04/27 00:29:58;;;;;;;12.85;6.63;;;5.80;99.90;;;;;;4877302;29;20021;-77
2023/04/27 00:32:25;;;;;;;12.43;6.55;;;5.80;99.90;;;;;;4862776;29;20041;-77
2023/04/27 00:34:51;;;;;;;13.50;7.00;;;5.80;99.90;;;;;;4878978;29;20202;-77
2023/04/27 00:37:17;;;;;;;18.63;7.63;;;5.80;99.90;;;;;;4877551;29;20048;-76
2023/04/27 00:39:44;;;;;;;13.35;6.03;;;5.70;99.90;;;;;;4878928;29;20025;-78
2023/04/27 00:42:14;;;;;;;19.88;8.68;;;5.80;99.90;;;;;;4879338;29;20028;-77
2023/04/27 00:44:40;;;;;;;13.30;8.25;;;5.70;99.90;;;;;;4861913;29;20069;-76
2023/04/27 00:47:06;;;;;;;11.55;6.43;;;5.60;99.90;;;;;;4848379;29;20029;-77
2023/04/27 00:49:32;;;;;;;16.60;7.05;;;5.70;99.90;;;;;;4890155;29;20049;-75
2023/04/27 00:51:59;;;;;;;13.23;6.68;;;5.60;99.90;;;;;;4896355;29;20124;-76
2023/04/27 00:54:25;;;;;;;15.05;6.80;;;5.60;99.90;;;;;;4897461;29;20469;-77
2023/04/27 00:56:52;;;;;;;15.68;7.22;;;5.50;99.90;;;;;;4896380;29;20028;-77
2023/04/27 00:59:18;;;;;;;14.88;7.05;;;5.50;99.90;;;;;;4896944;29;20031;-77
2023/04/27 01:01:48;;;;;;;19.20;7.28;;;5.50;99.90;;;;;;4880676;29;20037;-75
2023/04/27 01:04:16;;;;;;;16.83;6.97;;;5.40;99.90;;;;;;4895937;29;20029;-75
2023/04/27 01:06:42;;;;;;;10.57;5.85;;;5.40;99.90;;;;;;4895666;29;20060;-75
2023/04/27 01:09:09;;;;;;;12.23;6.68;;;5.40;99.90;;;;;;4880370;29;20105;-75
2023/04/27 01:11:35;;;;;;;13.75;6.90;;;5.40;99.90;;;;;;4894655;29;20045;-74
2023/04/27 01:14:05;;;;;;;14.63;7.13;;;5.30;99.90;;;;;;4863792;29;20076;-75
2023/04/27 01:16:32;;;;;;;16.27;7.20;;;5.40;99.90;;;;;;4881382;29;20025;-72
2023/04/27 01:18:58;;;;;;;13.10;6.88;;;5.30;99.90;;;;;;4896942;29;20052;-75
2023/04/27 01:21:25;;;;;;;17.38;6.43;;;5.30;99.90;;;;;;4896685;29;20063;-77
2023/04/27 01:23:51;;;;;;;13.95;6.38;;;5.30;99.90;;;;;;4895563;29;20135;-76
2023/04/27 01:26:17;;;;;;;13.43;6.90;;;5.20;99.90;;;;;;4895002;29;20029;-75
2023/04/27 01:28:43;;;;;;;19.42;7.00;;;5.30;99.90;;;;;;4895249;29;20445;-75
2023/04/27 01:31:13;;;;;;;14.27;6.25;;;5.20;99.90;;;;;;4894498;29;20104;-74
2023/04/27 01:33:40;;;;;;;13.23;6.82;;;5.30;99.90;;;;;;4894834;29;20032;-76
2023/04/27 01:36:07;;;;;;;13.27;6.80;;;5.30;99.90;;;;;;4872576;29;20029;-77
2023/04/27 01:38:33;;;;;;;13.57;7.25;;;5.40;99.90;;;;;;4893911;29;20104;-76
2023/04/27 01:41:00;;;;;;;14.27;7.13;;;5.40;99.90;;;;;;4896014;29;20128;-76
2023/04/27 01:43:33;;;;;;;16.08;7.35;;;5.40;99.90;;;;;;4878664;29;20072;-75
2023/04/27 01:46:13;;;;;;;20.58;8.45;;;5.30;99.90;;;;;;4879282;29;20044;-74
2023/04/27 01:48:40;;;;;;;19.95;10.23;;;5.30;99.90;;;;;;4894741;29;20032;-76
2023/04/27 01:51:06;;;;;;;19.45;9.90;;;5.30;99.90;;;;;;4893897;29;20042;-76
2023/04/27 01:53:32;;;;;;;17.77;8.95;;;5.30;99.90;;;;;;4879425;29;20392;-76
2023/04/27 01:56:01;;;;;;;14.70;8.32;;;5.40;99.90;;;;;;4894727;29;20515;-76
2023/04/27 01:58:27;;;;;;;15.75;8.93;;;5.40;99.90;;;;;;4894911;29;20080;-76
2023/04/27 02:00:53;;;;;;;16.05;9.15;;;5.40;99.90;;;;;;4877940;29;20029;-75
2023/04/27 02:03:19;;;;;;;14.63;8.40;;;5.40;99.90;;;;;;4894577;29;20035;-75
2023/04/27 02:05:46;;;;;;;19.67;9.68;;;5.30;99.90;;;;;;4879440;29;20032;-77
2023/04/27 02:08:11;;;;;;;16.75;8.98;;;5.10;99.90;;;;;;4894568;29;20520;-77
2023/04/27 02:10:37;;;;;;;21.20;10.68;;;5.00;99.90;;;;;;4895810;29;20040;-76
2023/04/27 02:13:03;;;;;;;18.92;10.50;;;4.90;99.90;;;;;;4893746;29;20084;-76
2023/04/27 02:15:29;;;;;;;17.92;10.45;;;5.00;99.90;;;;;;4895436;29;20112;-76
2023/04/27 02:17:56;;;;;;;21.38;10.55;;;5.00;99.90;;;;;;4895996;29;20107;-77
2023/04/27 02:20:22;;;;;;;18.23;9.90;;;4.90;99.90;;;;;;4894548;29;20033;-76
2023/04/27 02:22:48;;;;;;;22.05;10.27;;;4.90;99.90;;;;;;4895988;29;20033;-76
2023/04/27 02:25:15;;;;;;;17.98;9.70;;;4.80;99.90;;;;;;4895853;29;20059;-76
2023/04/27 02:27:42;;;;;;;18.83;10.02;;;4.80;99.90;;;;;;4894274;29;20032;-75
2023/04/27 02:30:10;;;;;;;19.00;10.32;;;4.90;99.90;;;;;;4894521;29;20709;-76
2023/04/27 02:32:36;;;;;;;16.90;9.35;;;4.90;99.90;;;;;;4895647;29;20476;-77
2023/04/27 02:35:03;;;;;;;15.38;9.52;;;5.10;99.90;;;;;;4894050;29;20039;-76
2023/04/27 02:37:30;;;;;;;16.00;9.77;;;5.10;99.90;;;;;;4895778;29;20036;-77
2023/04/27 02:39:56;;;;;;;17.77;10.23;;;5.20;99.90;;;;;;4894572;29;20460;-78
2023/04/27 02:42:22;;;;;;;19.38;9.23;;;5.10;99.90;;;;;;4894509;29;20055;-77
2023/04/27 02:44:48;;;;;;;18.38;9.95;;;5.00;99.90;;;;;;4894535;29;20047;-75
2023/04/27 02:47:13;;;;;;;18.70;9.50;;;5.00;99.90;;;;;;4895842;29;20103;-77
2023/04/27 02:49:41;;;;;;;16.80;9.35;;;5.00;99.90;;;;;;4894707;29;20140;-74
2023/04/27 02:52:07;;;;;;;17.77;9.30;;;5.10;99.90;;;;;;4893993;29;20127;-74
2023/04/27 02:54:33;;;;;;;17.55;9.35;;;5.10;99.90;;;;;;4895479;29;20112;-75
2023/04/27 02:56:59;;;;;;;15.05;9.07;;;5.00;99.90;;;;;;4895041;29;20443;-77
2023/04/27 02:59:25;;;;;;;18.10;8.75;;;4.90;99.90;;;;;;4894156;29;20029;-76
2023/04/27 03:01:51;;;;;;;17.67;8.82;;;4.80;99.90;;;;;;4893555;29;20024;-76
2023/04/27 03:04:17;;;;;;;18.77;9.60;;;4.70;99.90;;;;;;4882295;29;20035;-76
2023/04/27 03:06:44;;;;;;;20.05;10.35;;;4.60;99.90;;;;;;4898027;29;20032;-76
2023/04/27 03:09:10;;;;;;;20.23;10.93;;;4.60;99.90;;;;;;4893340;29;20059;-76
2023/04/27 03:11:36;;;;;;;18.35;10.60;;;4.60;99.90;;;;;;4899359;29;20068;-76
2023/04/27 03:14:03;;;;;;;17.40;9.02;;;4.50;99.90;;;;;;4891755;29;20362;-75
2023/04/27 03:16:33;;;;;;;19.52;9.85;;;4.50;99.90;;;;;;4894016;29;20043;-76
2023/04/27 03:18:58;;;;;;;18.20;9.57;;;4.50;99.90;;;;;;4895260;29;20029;-77
2023/04/27 03:21:25;;;;;;;18.95;9.88;;;4.50;99.90;;;;;;4893650;29;20037;-76
2023/04/27 03:23:51;;;;;;;13.68;8.25;;;4.40;99.90;;;;;;4893671;29;20488;-78
2023/04/27 03:26:17;;;;;;;16.75;8.98;;;4.40;99.90;;;;;;4895337;29;20029;-79
2023/04/27 03:28:43;;;;;;;19.63;9.57;;;4.40;99.90;;;;;;4894792;29;20108;-78
2023/04/27 03:31:12;;;;;;;20.95;9.90;;;4.50;99.90;;;;;;4896711;29;20378;-77
2023/04/27 03:33:38;;;;;;;18.08;9.02;;;4.50;99.90;;;;;;4896309;29;20084;-74
2023/04/27 03:36:05;;;;;;;14.43;7.38;;;4.50;99.90;;;;;;4879123;29;20037;-78
2023/04/27 03:38:32;;;;;;;17.33;8.50;;;4.50;99.90;;;;;;4895938;29;20099;-75
2023/04/27 03:40:58;;;;;;;16.77;8.85;;;4.50;99.90;;;;;;4879640;29;20033;-74
2023/04/27 03:43:25;;;;;;;16.17;7.85;;;4.40;99.90;;;;;;4896506;29;20484;-75
2023/04/27 03:45:51;;;;;;;21.42;8.35;;;4.50;99.90;;;;;;4895086;29;20044;-75
2023/04/27 03:48:18;;;;;;;14.48;7.78;;;4.50;99.90;;;;;;4879612;29;20025;-76
2023/04/27 03:50:46;;;;;;;14.05;8.90;;;4.60;99.90;;;;;;4894897;29;20064;-75
2023/04/27 03:53:12;;;;;;;13.63;7.72;;;5.00;99.90;;;;;;4895206;29;20063;-78
2023/04/27 03:55:42;;;;;;;15.18;8.20;;;5.50;99.90;;;;;;4897305;29;20025;-77
2023/04/27 03:58:11;;;;;;;22.80;10.50;;;6.20;99.90;;;;;;4898886;29;20038;-77
2023/04/27 04:00:44;;;;;;;13.93;8.45;;;6.50;99.90;;;;;;4882891;29;20028;-76
2023/04/27 04:03:10;;;;;;;15.13;8.60;;;6.70;99.90;;;;;;4904670;29;20035;-76
2023/04/27 04:05:36;;;;;;;19.08;7.97;;;7.00;99.90;;;;;;4889453;29;20067;-75
2023/04/27 04:08:04;;;;;;;13.57;7.80;;;7.60;99.90;;;;;;4855146;29;20024;-75
2023/04/27 04:10:30;;;;;;;12.95;6.25;;;8.00;99.90;;;;;;4898164;29;20498;-77
2023/04/27 04:12:55;;;;;;;19.90;7.95;;;8.30;99.90;;;;;;4897702;29;20044;-76
2023/04/27 04:15:22;;;;;;;16.27;8.27;;;8.20;99.90;;;;;;4882404;29;20076;-78
2023/04/27 04:17:50;;;;;;;20.00;10.15;;;7.70;99.90;;;;;;4882056;29;20067;-76
2023/04/27 04:20:17;;;;;;;17.98;9.88;;;7.10;99.90;;;;;;4895880;29;20095;-77
2023/04/27 04:22:43;;;;;;;20.50;9.30;;;7.10;99.90;;;;;;4898814;29;20037;-74
2023/04/27 04:25:11;;;;;;;14.95;8.18;;;6.80;99.90;;;;;;4891062;29;20119;-74
2023/04/27 04:27:37;;;;;;;18.92;8.82;;;6.70;99.90;;;;;;4889035;29;20035;-75
2023/04/27 04:30:05;;;;;;;20.63;9.40;;;7.20;99.90;;;;;;4890255;29;20230;-75
2023/04/27 04:32:32;;;;;;;12.68;6.70;;;8.10;99.90;;;;;;4899674;29;20037;-77
2023/04/27 04:35:00;;;;;;;19.10;7.80;;;8.10;99.90;;;;;;4899134;29;20028;-77
2023/04/27 04:37:27;;;;;;;11.90;7.32;;;8.10;99.90;;;;;;4882364;29;20024;-77
2023/04/27 04:39:54;;;;;;;13.88;7.43;;;9.40;99.90;;;;;;4881999;29;20033;-77
2023/04/27 04:42:20;;;;;;;15.30;6.88;;;10.10;99.90;;;;;;4897472;29;20093;-74
2023/04/27 04:44:46;;;;;;;18.13;6.70;;;10.30;99.60;;;;;;4899414;29;20037;-75
2023/04/27 04:47:12;;;;;;;12.20;6.25;;;10.50;97.80;;;;;;4900784;29;20080;-78
2023/04/27 04:49:38;;;;;;;12.43;8.00;;;10.40;98.00;;;;;;4911669;29;20104;-77
2023/04/27 04:52:04;;;;;;;14.65;7.28;;;11.00;97.40;;;;;;4897503;29;20045;-77
2023/04/27 04:54:31;;;;;;;13.27;6.28;;;11.80;96.00;;;;;;4896937;29;20084;-76
2023/04/27 04:56:58;;;;;;;13.13;6.28;;;11.70;96.40;;;;;;4871639;29;20033;-73
2023/04/27 04:59:24;;;;;;;12.20;6.28;;;10.90;96.30;;;;;;4889687;29;20032;-73
2023/04/27 05:01:54;;;;;;;14.93;6.88;;;11.50;96.40;;;;;;4888875;29;20413;-75
2023/04/27 05:04:20;;;;;;;11.93;6.32;;;11.70;96.10;;;;;;4903236;29;20028;-73
2023/04/27 05:06:46;;;;;;;14.80;6.35;;;11.10;96.50;;;;;;4901746;29;20033;-73
2023/04/27 05:09:13;;;;;;;9.88;6.05;;;10.30;96.80;;;;;;4903833;29;20028;-74
2023/04/27 05:11:38;;;;;;;13.40;6.30;;;9.90;99.00;;;;;;4903584;29;20504;-74
2023/04/27 05:14:04;;;;;;;13.57;6.38;;;9.90;99.20;;;;;;4896791;29;20128;-75
2023/04/27 05:16:30;;;;;;;12.88;6.57;;;10.00;99.90;;;;;;4895845;29;20453;-73
2023/04/27 05:18:56;;;;;;;12.23;6.53;;;10.00;99.90;;;;;;4910283;29;20048;-78
2023/04/27 05:21:22;;;;;;;14.32;7.57;;;9.80;99.90;;;;;;4895434;29;20036;-77
2023/04/27 05:23:47;;;;;;;12.73;6.55;;;10.30;99.90;;;;;;4897625;29;20568;-74
2023/04/27 05:26:15;;;;;;;13.70;6.68;;;10.30;99.90;;;;;;4898380;29;20084;-76
2023/04/27 05:28:41;;;;;;;13.15;6.90;;;10.30;99.90;;;;;;4897630;29;20047;-75
2023/04/27 05:31:07;;;;;;;11.48;6.15;;;10.10;99.90;;;;;;4900536;29;20040;-74
2023/04/27 05:33:33;;;;;;;12.10;6.32;;;10.10;99.90;;;;;;4901521;29;20033;-75
2023/04/27 05:35:59;;;;;;;15.20;6.32;;;10.00;99.90;;;;;;4900421;29;20025;-76
2023/04/27 05:38:25;;;;;;;11.32;5.60;;;10.10;99.90;;;;;;4900076;29;20461;-75
2023/04/27 05:40:57;;;;;;;12.90;6.20;;;10.10;99.90;;;;;;4899862;29;20032;-74
2023/04/27 05:43:24;;;;;;;16.17;7.13;;;10.20;99.90;;;;;;4899064;29;20515;-77
2023/04/27 05:45:50;;;;;;;13.23;5.82;;;10.20;99.90;;;;;;4899707;29;20480;-77
2023/04/27 05:48:16;;;;;;;13.40;6.40;;;10.00;99.90;;;;;;4897959;29;20041;-74
2023/04/27 05:50:42;;;;;;;10.35;6.18;;;10.20;99.90;;;;;;4897234;29;20059;-75
2023/04/27 05:53:07;;;;;;;11.77;5.90;;;10.30;98.40;;;;;;4897627;29;20037;-75
2023/04/27 05:55:33;;;;;;;12.27;6.05;;;10.40;99.40;;;;;;4897874;29;20564;-78
2023/04/27 05:58:00;;;;;;;13.80;6.82;;;10.40;99.90;;;;;;4896851;29;20107;-75
2023/04/27 06:00:27;;;;;;;10.40;5.53;;;10.60;99.90;;;;;;4896376;29;20028;-74
2023/04/27 06:02:53;;;;;;;12.00;6.57;;;10.50;98.80;;;;;;4897819;29;20043;-75
2023/04/27 06:05:19;;;;;;;12.30;5.55;;;10.40;99.90;;;;;;4893681;29;20105;-76
2023/04/27 06:07:45;;;;;;;10.15;5.57;;;10.60;99.40;;;;;;4896938;29;20146;-77
2023/04/27 06:10:12;;;;;;;13.65;5.55;;;10.80;98.20;;;;;;4895560;29;20453;-79
2023/04/27 06:12:38;;;;;;;8.98;4.75;;;11.30;99.90;;;;;;4897383;29;20040;-75
2023/04/27 06:15:08;;;;;;;9.77;4.75;;;11.10;97.80;;;;;;4896605;29;20067;-77
2023/04/27 06:17:35;;;;;;;10.80;5.68;;;11.30;97.60;;;;;;4895740;29;20036;-75
2023/04/27 06:20:08;;;;;;;7.50;4.47;;;11.40;97.00;;;;;;4878133;29;20079;-77
2023/04/27 06:22:37;;;;;;;6.35;4.32;;;11.50;94.80;;;;;;4895798;29;20041;-76
2023/04/27 06:25:06;;;;;;;7.70;4.43;;;11.60;97.00;;;;;;4896514;29;20016;-78
2023/04/27 06:27:33;;;;;;;9.45;4.80;;;11.70;94.80;;;;;;4881104;29;20060;-76
2023/04/27 06:29:59;;;;;;;7.25;4.68;;;11.90;95.50;;;;;;4893042;29;20048;-77
2023/04/27 06:32:25;;;;;;;9.05;4.65;;;12.10;93.80;;;;;;4894970;29;20489;-75
2023/04/27 06:34:52;;;;;;;7.97;4.22;;;12.00;93.00;;;;;;4900704;29;20488;-75
2023/04/27 06:37:17;;;;;;;9.77;4.38;;;12.20;92.80;;;;;;4910376;29;20029;-77
2023/04/27 06:39:43;;;;;;;9.73;4.53;;;12.40;93.00;;;;;;4895930;29;20047;-75
2023/04/27 06:42:10;;;;;;;9.80;3.80;;;12.50;94.80;;;;;;4901209;29;20467;-74
2023/04/27 06:44:36;;;;;;;7.63;3.67;;;12.50;92.60;;;;;;4880441;29;20039;-77
2023/04/27 06:47:03;;;;;;;10.13;4.53;;;12.50;92.80;;;;;;4897611;29;20036;-77
2023/04/27 06:49:28;;;;;;;9.48;4.80;;;12.50;93.30;;;;;;4896962;29;20049;-75
2023/04/27 06:51:55;;;;;;;11.90;4.65;;;12.60;92.70;;;;;;4891880;29;20029;-77
2023/04/27 06:54:21;;;;;;;9.38;4.25;;;12.70;94.60;;;;;;4894395;29;20032;-76
2023/04/27 06:56:47;;;;;;;5.95;3.42;;;12.70;92.00;;;;;;4900066;29;20092;-74
2023/04/27 06:59:13;;;;;;;8.95;4.28;;;13.00;90.70;;;;;;4896113;29;20503;-75
2023/04/27 07:01:39;;;;;;;6.22;3.47;;;12.90;91.50;;;;;;4900049;29;20045;-73
2023/04/27 07:04:05;;;;;;;6.13;3.80;;;12.80;91.20;;;;;;4896364;29;20088;-75
2023/04/27 07:06:32;;;;;;;9.02;3.70;;;13.00;90.50;;;;;;4896400;29;20041;-77
2023/04/27 07:08:58;;;;;;;6.20;3.88;;;13.00;90.70;;;;;;4895707;29;20036;-75
2023/04/27 07:11:24;;;;;;;8.00;3.85;;;13.00;90.90;;;;;;4884370;29;20029;-76
2023/04/27 07:13:50;;;;;;;6.65;3.40;;;13.30;92.00;;;;;;4896665;29;20063;-75
2023/04/27 07:16:16;;;;;;;8.85;3.83;;;13.20;90.10;;;;;;4879233;29;20072;-73
2023/04/27 07:18:42;;;;;;;8.85;3.80;;;13.30;90.40;;;;;;4895963;29;20378;-74
2023/04/27 07:21:09;;;;;;;5.13;2.83;;;13.20;90.50;;;;;;4896249;29;20036;-72
2023/04/27 07:23:35;;;;;;;5.93;3.33;;;13.30;90.00;;;;;;4894975;29;20048;-74
2023/04/27 07:26:01;;;;;;;6.03;3.50;;;13.30;89.20;;;;;;4896792;29;20028;-73
2023/04/27 07:28:28;;;;;;;7.32;3.70;;;13.30;89.70;;;;;;4896030;29;20037;-73
2023/04/27 07:30:54;;;;;;;5.43;2.97;;;13.20;88.70;;;;;;4898155;29;20032;-74
2023/04/27 07:33:21;;;;;;;6.45;3.25;;;13.20;87.40;;;;;;4900521;29;20035;-77
2023/04/27 07:35:49;;;;;;;5.70;2.90;;;13.30;89.20;;;;;;4899886;29;20036;-75
2023/04/27 07:38:16;;;;;;;4.10;2.63;;;13.60;87.40;;;;;;4900052;29;20028;-74
2023/04/27 07:40:42;;;;;;;7.20;3.58;;;13.90;89.20;;;;;;4899493;29;20044;-74
2023/04/27 07:43:08;;;;;;;8.70;3.33;;;13.90;88.70;;;;;;4897551;29;20028;-73
2023/04/27 07:45:36;;;;;;;6.43;2.92;;;13.90;88.80;;;;;;4899886;29;20422;-74
2023/04/27 07:48:03;;;;;;;4.47;2.40;;;13.90;89.90;;;;;;4902977;29;20030;-73
2023/04/27 07:50:30;;;;;;;4.53;2.13;;;13.90;86.00;;;;;;4906387;29;20346;-73
2023/04/27 07:52:56;;;;;;;4.20;2.75;;;14.00;86.10;;;;;;4882692;29;20039;-77
2023/04/27 07:55:23;;;;;;;9.73;2.80;;;13.90;88.90;;;;;;4892270;29;20041;-76
2023/04/27 07:57:51;;;;;;;4.07;2.58;;;13.90;88.20;;;;;;4894288;29;20115;-73
2023/04/27 08:00:17;;;;;;;7.18;3.22;;;14.10;90.50;;;;;;4895376;29;20057;-73
2023/04/27 08:02:42;;;;;;;5.90;2.55;;;14.50;90.00;;;;;;4883023;29;20441;-73
2023/04/27 08:05:09;;;;;;;5.57;2.95;;;14.60;85.10;;;;;;4899755;29;20037;-77
2023/04/27 08:07:34;;;;;;;4.57;2.65;;;14.50;86.40;;;;;;4898589;29;20027;-75
2023/04/27 08:10:02;;;;;;;4.80;1.77;;;14.40;86.70;;;;;;4881126;29;20059;-75
2023/04/27 08:12:27;;;;;;;4.65;2.20;;;14.30;85.40;;;;;;4892045;29;20473;-76
2023/04/27 08:14:53;;;;;;;3.83;2.38;;;14.40;87.10;;;;;;4899802;29;20143;-77
2023/04/27 08:17:20;;;;;;;7.15;2.33;;;14.30;82.20;;;;;;4898824;29;20036;-74
2023/04/27 08:19:47;;;;;;;6.47;2.63;;;14.30;85.80;;;;;;4899082;29;21195;-74
2023/04/27 08:22:13;;;;;;;5.50;2.25;;;14.50;87.10;;;;;;4897818;29;20048;-75
2023/04/27 08:24:39;;;;;;;6.22;2.90;;;14.40;85.80;;;;;;4897198;29;20061;-76
2023/04/27 08:27:05;;;;;;;4.68;2.03;;;14.40;82.00;;;;;;4898047;29;20067;-77
2023/04/27 08:29:31;;;;;;;3.85;2.40;;;14.70;84.40;;;;;;4897022;29;20033;-73
2023/04/27 08:32:00;;;;;;;10.20;2.47;;;14.80;83.40;;;;;;4899515;29;20039;-77
2023/04/27 08:34:26;;;;;;;7.13;1.92;;;14.70;87.00;;;;;;4898095;29;20029;-76
2023/04/27 08:36:53;;;;;;;6.40;3.10;;;14.80;84.70;;;;;;4897371;29;20029;-74
2023/04/27 08:39:19;;;;;;;2.90;1.88;;;14.20;86.00;;;;;;4898140;29;20466;-75
2023/04/27 08:41:45;;;;;;;5.18;2.40;;;14.50;81.80;;;;;;4882251;29;20104;-74
2023/04/27 08:44:11;;;;;;;2.65;1.60;;;14.50;81.90;;;;;;4899158;29;20037;-77
2023/04/27 08:46:38;;;;;;;4.88;2.47;;;14.70;84.00;;;;;;4898836;29;20036;-77
2023/04/27 08:49:06;;;;;;;4.20;2.22;;;14.60;79.80;;;;;;4902141;29;20036;-76
2023/04/27 08:51:32;;;;;;;5.78;2.40;;;14.60;81.90;;;;;;4897705;29;20037;-76
2023/04/27 08:53:58;;;;;;;4.72;2.47;;;14.70;82.80;;;;;;4896963;29;20033;-77
2023/04/27 08:56:26;;;;;;;3.65;2.20;;;14.50;79.50;;;;;;4898095;29;20362;-75
2023/04/27 08:58:53;;;;;;;3.67;2.45;;;14.70;80.40;;;;;;4898427;29;20052;-75
2023/04/27 09:01:20;;;;;;;8.68;2.50;;;14.80;80.90;;;;;;4898461;29;20051;-73
2023/04/27 09:03:46;;;;;;;5.55;2.67;;;14.80;81.80;;;;;;4898281;29;20362;-74
2023/04/27 09:06:13;;;;;;;7.88;2.47;;;14.80;82.20;;;;;;4898085;29;20020;-74
2023/04/27 09:08:49;;;;;;;4.20;2.10;;;14.60;81.50;;;;;;4897045;29;20028;-73
2023/04/27 09:11:28;;;;;;;5.15;2.33;;;14.70;79.50;;;;;;4898679;29;20088;-73
2023/04/27 09:13:54;;;;;;;4.53;2.15;;;14.70;80.20;;;;;;4896754;29;20043;-74
2023/04/27 09:16:25;;;;;;;6.82;2.35;;;14.60;81.70;;;;;;4898509;29;20028;-73
2023/04/27 09:18:52;;;;;;;3.17;1.95;;;14.60;80.00;;;;;;4897774;29;20060;-73
2023/04/27 09:21:26;;;;;;;4.07;2.22;;;14.60;81.40;;;;;;4898159;29;20096;-74
2023/04/27 09:23:52;;;;;;;3.33;1.88;;;14.80;82.40;;;;;;4898130;29;20043;-75
2023/04/27 09:26:26;;;;;;;5.13;2.38;;;14.90;79.90;;;;;;4898322;29;20027;-73
2023/04/27 09:28:54;;;;;;;5.55;2.15;;;14.90;80.10;;;;;;4909635;29;20052;-73
2023/04/27 09:31:20;;;;;;;10.10;2.25;;;15.10;79.00;;;;;;4901942;29;20063;-74
2023/04/27 09:33:54;;;;;;;2.38;1.70;;;15.20;82.90;;;;;;4897845;29;20060;-73
2023/04/27 09:36:22;;;;;;;5.35;2.13;;;14.90;82.00;;;;;;4898238;29;20129;-72
2023/04/27 09:38:50;;;;;;;3.33;2.05;;;15.10;81.40;;;;;;4897420;29;20107;-73
2023/04/27 09:41:16;;;;;;;8.57;2.53;;;15.00;84.30;;;;;;4897570;29;20041;-73
2023/04/27 09:43:46;;;;;;;5.45;2.45;;;15.00;79.10;;;;;;4895588;29;20032;-73
2023/04/27 09:46:15;;;;;;;21.73;4.00;;;14.90;77.70;;;;;;4898271;29;20081;-75
2023/04/27 09:48:41;;;;;;;7.43;3.00;;;14.90;80.30;;;;;;4900440;29;20052;-73
2023/04/27 09:51:07;;;;;;;5.05;2.30;;;15.00;81.70;;;;;;4900984;29;20112;-76
2023/04/27 09:53:47;;;;;;;3.75;2.00;;;15.20;81.40;;;;;;4896988;29;20035;-74
2023/04/27 09:56:44;;;;;;;4.45;2.30;;;15.20;79.40;;;;;;4897565;29;20415;-74
2023/04/27 09:59:25;;;;;;;4.72;2.38;;;15.40;80.90;;;;;;4896275;29;20060;-75
2023/04/27 10:01:55;;;;;;;3.65;2.30;;;15.50;78.20;;;;;;4908345;29;20056;-74
2023/04/27 10:04:58;;;;;;;3.92;1.92;;;15.40;79.90;;;;;;4896711;29;20035;-73
2023/04/27 10:07:26;;;;;;;4.93;2.25;;;15.30;79.50;;;;;;4896486;29;20384;-74
2023/04/27 10:09:52;;;;;;;7.47;1.98;;;15.20;78.70;;;;;;4885452;29;20028;-76
2023/04/27 10:12:20;;;;;;;5.78;2.17;;;15.30;80.60;;;;;;4896704;29;20507;-73
2023/04/27 10:14:53;;;;;;;4.43;2.75;;;15.20;79.90;;;;;;4897207;29;20040;-75
2023/04/27 10:17:23;;;;;;;;;;;15.20;80.00;;;;;;4897506;29;20047;-74
2023/04/27 10:19:57;;;;;;;3.80;1.90;;;15.10;78.20;;;;;;4897203;29;19995;-75
2023/04/27 10:22:35;;;;;;;9.68;3.50;;;15.30;80.80;;;;;;4896841;29;20044;-74
2023/04/27 10:25:12;;;;;;;6.10;2.72;;;15.10;76.90;;;;;;4897052;29;20378;-76
2023/04/27 10:27:39;;;;;;;4.80;1.92;;;15.10;79.60;;;;;;4897241;29;20481;-74
2023/04/27 10:30:12;;;;;;;9.70;2.40;;;15.10;79.90;;;;;;4897088;29;20381;-74
2023/04/27 10:32:50;;;;;;;7.68;3.17;;;15.20;80.00;;;;;;4896274;29;20125;-72
2023/04/27 10:35:16;;;;;;;8.38;3.58;;;15.20;77.10;;;;;;4897107;29;20095;-74
2023/04/27 10:37:43;;;;;;;7.75;2.92;;;15.20;76.60;;;;;;4896179;29;20108;-73
2023/04/27 10:40:18;;;;;;;5.13;2.85;;;15.20;79.60;;;;;;4896298;29;20169;-76
2023/04/27 10:42:47;;;;;;;6.00;3.25;;;15.30;77.20;;;;;;4896924;29;20138;-76
2023/04/27 10:45:12;;;;;;;7.03;2.75;;;15.40;75.90;;;;;;4896877;29;20025;-75
2023/04/27 10:47:44;;;;;;;5.82;2.92;;;15.50;81.60;;;;;;4897141;29;20028;-73
2023/04/27 10:50:12;;;;;;;3.42;1.92;;;15.60;82.10;;;;;;4896529;29;20552;-76
2023/04/27 10:52:42;;;;;;;5.18;2.63;;;15.60;78.90;;;;;;4896816;29;20036;-74
2023/04/27 10:55:19;;;;;;;8.70;2.83;;;15.80;81.50;;;;;;4896837;29;20109;-74
2023/04/27 10:57:53;;;;;;;4.43;2.42;;;15.60;79.90;;;;;;4889805;29;20437;-74
2023/04/27 11:00:33;;;;;;;5.03;2.63;;;15.60;79.20;;;;;;4895135;29;20039;-73
2023/04/27 11:03:17;;;;;;;7.22;2.55;;;15.70;78.00;;;;;;4896398;29;20112;-73
2023/04/27 11:05:44;;;;;;;6.72;2.60;;;15.60;79.50;;;;;;4898383;29;20034;-74
2023/04/27 11:08:13;;;;;;;4.82;2.47;;;15.50;80.40;;;;;;4890738;29;20060;-74
2023/04/27 11:10:42;;;;;;;7.60;3.08;;;15.50;79.90;;;;;;4894558;29;20516;-73
2023/04/27 11:13:10;;;;;;;4.32;2.28;;;15.60;81.20;;;;;;4900672;29;20048;-74
2023/04/27 11:15:49;;;;;;;4.88;2.55;;;15.40;80.80;;;;;;4898082;29;20072;-73
2023/04/27 11:18:17;;;;;;;3.65;2.72;;;15.50;77.70;;;;;;4898270;29;20047;-74
2023/04/27 11:20:45;;;;;;;8.50;4.40;;;15.50;79.40;;;;;;4900561;29;20036;-73
2023/04/27 11:23:29;;;;;;;4.78;2.78;;;15.50;81.80;;;;;;4900407;29;20049;-76
2023/04/27 11:25:55;;;;;;;10.00;4.30;;;15.50;80.50;;;;;;4899982;29;20067;-73
2023/04/27 11:28:23;;;;;;;6.55;2.85;;;15.40;79.90;;;;;;4900140;29;20036;-74
2023/04/27 11:30:56;;;;;;;6.68;2.97;;;15.50;82.30;;;;;;4899480;29;20057;-73
2023/04/27 11:33:22;;;;;;;7.68;3.72;;;15.60;79.30;;;;;;4884173;29;20040;-76
2023/04/27 11:35:47;;;;;;;6.55;2.33;;;15.80;83.90;;;;;;4913660;29;20415;-76
2023/04/27 11:38:18;;;;;;;5.63;2.80;;;15.90;80.40;;;;;;4904268;29;20508;-76
2023/04/27 11:40:46;;;;;;;6.03;3.03;;;16.30;82.70;;;;;;4903648;29;20029;-73
2023/04/27 11:43:14;;;;;;;6.55;2.85;;;16.40;79.00;;;;;;4899925;29;20033;-74
2023/04/27 11:45:44;;;;;;;7.25;3.28;;;16.10;79.50;;;;;;4900391;29;20033;-76
2023/04/27 11:48:16;;;;;;;6.18;2.40;;;16.10;80.00;;;;;;4899916;29;20028;-74
2023/04/27 11:50:46;;;;;;;;;;;16.20;79.00;;;;;;4899975;29;20045;-73
2023/04/27 11:53:12;;;;;;;7.32;2.88;;;16.40;80.30;;;;;;4906107;29;20017;-75
2023/04/27 11:55:40;;;;;;;7.00;2.65;;;16.60;80.30;;;;;;4901618;29;20524;-73
2023/04/27 11:58:06;;;;;;;4.80;2.55;;;16.20;78.60;;;;;;4896756;29;20485;-75
2023/04/27 12:00:32;;;;;;;5.75;2.53;;;16.10;76.90;;;;;;4901910;29;20393;-75
2023/04/27 12:02:58;;;;;;;3.92;2.63;;;16.30;79.40;;;;;;4893744;29;20480;-75
2023/04/27 12:05:24;;;;;;;6.53;2.53;;;16.30;79.60;;;;;;4898780;29;20035;-77
2023/04/27 12:07:51;;;;;;;5.43;2.75;;;16.20;77.40;;;;;;4896391;29;20039;-75
2023/04/27 12:10:17;;;;;;;9.20;2.80;;;16.20;79.50;;;;;;4879573;29;20027;-75
2023/04/27 12:12:43;;;;;;;4.35;2.75;;;16.30;80.40;;;;;;4898333;29;20052;-77
2023/04/27 12:15:09;;;;;;;5.90;2.38;;;16.00;78.40;;;;;;4879993;29;20135;-77
2023/04/27 12:17:36;;;;;;;5.82;2.40;;;16.10;79.80;;;;;;4902421;29;20032;-75
2023/04/27 12:20:02;;;;;;;3.83;2.83;;;16.20;79.00;;;;;;4899588;29;20040;-76
2023/04/27 12:22:28;;;;;;;5.70;2.95;;;16.30;78.80;;;;;;4896749;29;20045;-75
2023/04/27 12:24:54;;;;;;;7.63;2.83;;;16.30;76.10;;;;;;4905575;29;20031;-74
2023/04/27 12:27:20;;;;;;;8.07;3.30;;;16.50;79.00;;;;;;4897927;29;20064;-72
2023/04/27 12:29:46;;;;;;;6.55;2.80;;;16.50;79.70;;;;;;4906770;29;20023;-75
2023/04/27 12:32:12;;;;;;;6.65;2.95;;;16.20;80.30;;;;;;4898423;29;20024;-75
2023/04/27 12:34:38;;;;;;;4.78;2.53;;;16.20;80.90;;;;;;4905231;29;20052;-73
2023/04/27 12:37:05;;;;;;;8.48;3.40;;;16.20;80.30;;;;;;4904771;29;20044;-73
2023/04/27 12:39:31;;;;;;;5.45;2.60;;;16.20;79.10;;;;;;4883492;29;20092;-73
2023/04/27 12:41:57;;;;;;;5.25;2.45;;;16.20;79.20;;;;;;4900850;29;20036;-75
2023/04/27 12:44:23;;;;;;;10.70;3.05;;;16.40;80.80;;;;;;4897787;29;20032;-75
2023/04/27 12:46:49;;;;;;;3.70;2.17;;;16.60;79.20;;;;;;4900739;29;20032;-74